ADDS METAR Data INFO
IDs: Format: Raw Decoded Include TAF

Data at: 1814 UTC 20 Jul 2018

KASL 201755Z AUTO 21007KT 10SM CLR 35/20 A2995 RMK AO1 T03500198 10350 20240
KASL 201735Z AUTO 25005KT 10SM CLR 34/20 A2996 RMK AO1 T03360195
KASL 201715Z AUTO 22006KT 10SM CLR 34/21 A2996 RMK AO1 T03360205
KASL 201655Z AUTO 23005KT 10SM CLR 33/21 A2996 RMK AO1 T03310206
KASL 201635Z AUTO 25006KT 10SM CLR 32/20 A2996 RMK AO1 T03240204
KASL 201615Z AUTO 22008KT 10SM CLR 32/20 A2996 RMK AO1 T03220202
KASL 201555Z AUTO 23005KT 10SM CLR 32/21 A2995 RMK AO1 T03220211
KASL 201535Z AUTO 22009KT 200V260 10SM CLR 32/22 A2996 RMK AO1 T03200217
KASL 201515Z AUTO 22007KT 10SM CLR 30/21 A2996 RMK AO1 T03010211
KASL 201455Z AUTO 22006KT 10SM CLR 30/21 A2996 RMK AO1 T02950211
KASL 201435Z AUTO 23008KT 10SM CLR 30/22 A2996 RMK AO1 T02950219
KASL 201415Z AUTO 23006KT 10SM CLR 30/23 A2996 RMK AO1 T02950225
KASL 201355Z AUTO 22006KT 10SM CLR 28/22 A2996 RMK AO1 T02800220
KASL 201335Z AUTO 22007KT 10SM CLR 27/22 A2996 RMK AO1 T02710217
KASL 201315Z AUTO 23005KT 10SM CLR 26/21 A2995 RMK AO1 T02600211
KASL 201255Z AUTO 24005KT 10SM CLR 25/21 A2996 RMK AO1 T02530211
KASL 201235Z AUTO 21005KT 10SM CLR 25/21 A2995 RMK AO1 T02500214
KASL 201215Z AUTO 00000KT 10SM CLR 24/21 A2995 RMK AO1 T02400211
KASL 201155Z AUTO 00000KT 10SM CLR 24/21 A2994 RMK AO1 T02400210 10280 20225
KASL 201135Z AUTO 22003KT 10SM CLR 24/21 A2993 RMK AO1 T02400213
KASL 201115Z AUTO 00000KT 10SM CLR 24/22 A2993 RMK AO1 T02400215
KASL 201055Z AUTO 00000KT 10SM CLR 24/22 A2992 RMK AO1 T02390217
KASL 201035Z AUTO 19004KT 10SM CLR 23/21 A2991 RMK AO1 T02250205
KASL 201015Z AUTO 00000KT 10SM CLR 24/22 A2992 RMK AO1 T02400215
KASL 200955Z AUTO 00000KT 10SM CLR 24/21 A2991 RMK AO1 T02400212
KASL 200935Z AUTO 00000KT 10SM CLR 24/21 A2990 RMK AO1 T02410210
KASL 200915Z AUTO 00000KT 10SM CLR 25/21 A2990 RMK AO1 T02500213
KASL 200855Z AUTO 20003KT 10SM CLR 25/21 A2990 RMK AO1 T02520213
KASL 200835Z AUTO 00000KT 10SM CLR 25/21 A2989 RMK AO1 T02520210
KASL 200815Z AUTO 20004KT 10SM CLR 26/21 A2989 RMK AO1 T02550211
KASL 200755Z AUTO 19005KT 10SM CLR 25/21 A2990 RMK AO1 T02520211
KASL 200735Z AUTO 19004KT 10SM CLR 25/21 A2989 RMK AO1 T02470210
KASL 200715Z AUTO 17003KT 10SM CLR 25/21 A2990 RMK AO1 T02520210
KASL 200655Z AUTO 17004KT 10SM CLR 25/21 A2990 RMK AO1 T02530208
KASL 200635Z AUTO 19003KT 10SM CLR 28/22 A2990 RMK AO1 T02800220
KASL 200615Z AUTO 20006KT 10SM CLR 28/22 A2989 RMK AO1 T02800217
KASL 200555Z AUTO 20004KT 10SM CLR 28/22 A2990 RMK AO1 T02800221 10357 20264 403720232
KASL 200535Z AUTO 19005KT 10SM CLR 27/21 A2990 RMK AO1 T02680214
KASL 200515Z AUTO 17003KT 10SM CLR 28/22 A2990 RMK AO1 T02800220
KASL 200455Z AUTO 19004KT 10SM CLR 29/23 A2990 RMK AO1 T02940226
KASL 200435Z AUTO 10SM CLR 30/22 A2990 RMK AO1 T02950223
KASL 200415Z AUTO 19007KT 10SM CLR 30/22 A2990 RMK AO1 T02950220
KASL 200355Z AUTO 10SM CLR 30/22 A2990 RMK AO1 T02950219
KASL 200335Z AUTO 10SM CLR 30/22 A2990 RMK AO1 T02950215
KASL 200315Z AUTO 10SM CLR 30/22 A2990 RMK AO1 T02950215
KASL 200255Z AUTO 10SM CLR 30/22 A2989 RMK AO1 T02950216
KASL 200235Z AUTO 10SM CLR 30/21 A2989 RMK AO1 T02950206
KASL 200215Z AUTO 19003KT 10SM CLR 30/21 A2988 RMK AO1 T02950206
KASL 200155Z AUTO 00000KT 10SM CLR 31/21 A2988 RMK AO1 T03070214
KASL 200135Z AUTO 00000KT 10SM CLR 32/22 A2987 RMK AO1 T03160216
KASL 200115Z AUTO 00000KT 10SM CLR 33/20 A2987 RMK AO1 T03290202
KASL 200055Z AUTO 20003KT 10SM CLR 34/19 A2986 RMK AO1 T03370191
KASL 200035Z AUTO 21005KT 10SM CLR 35/19 A2986 RMK AO1 T03500190
KASL 200015Z AUTO 21005KT 10SM CLR 35/18 A2985 RMK AO1 T03530178
KASL 192355Z AUTO 21006KT 10SM CLR 36/17 A2985 RMK AO1 T03570167 10372 20340
KASL 192335Z AUTO 20006KT 10SM CLR 37/16 A2985 RMK AO1 T03650164
KASL 192315Z AUTO 20006KT 10SM CLR 37/16 A2985 RMK AO1 T03650160
KASL 192255Z AUTO 19009KT 10SM CLR 37/16 A2985 RMK AO1 T03650155
KASL 192235Z AUTO 21007KT 10SM CLR 37/16 A2985 RMK AO1 T03680160
KASL 192215Z AUTO 20010KT 10SM CLR 37/16 A2986 RMK AO1 T03710161
KASL 192155Z AUTO 19007KT 10SM CLR 37/16 A2987 RMK AO1 T03670161
KASL 192135Z AUTO 21008KT 10SM CLR 37/16 A2987 RMK AO1 T03690156
KASL 192115Z AUTO 23008KT 10SM CLR 37/17 A2988 RMK AO1 T03690167
KASL 192055Z AUTO 24006KT 10SM CLR 37/17 A2988 RMK AO1 T03660168
KASL 192035Z AUTO 26006KT 10SM CLR 37/17 A2988 RMK AO1 T03680169
KASL 192015Z AUTO 22006KT 10SM CLR 37/17 A2989 RMK AO1 T03670170
KASL 191955Z AUTO 23006KT 10SM CLR 37/18 A2990 RMK AO1 T03650179
KASL 191935Z AUTO 23007KT 10SM CLR 36/18 A2990 RMK AO1 T03640181
KASL 191915Z AUTO 21007KT 10SM CLR 36/19 A2991 RMK AO1 T03570186
KASL 191855Z AUTO 20008KT 10SM CLR 35/19 A2991 RMK AO1 T03540191
KASL 191835Z AUTO 10SM CLR 35/20 A2991 RMK AO1 T03500198
KASL 191815Z AUTO 10SM CLR 35/20 A2992 RMK AO1 T03500198
KASL 191755Z AUTO 21007KT 10SM CLR 34/20 A2992 RMK AO1 T03370198 10350 20239
KASL 191735Z AUTO 10SM CLR 34/20 A2993 RMK AO1 T03380201
KASL 191715Z AUTO 23006KT 10SM CLR 34/20 A2994 RMK AO1 T03360201
KASL 191655Z AUTO 10SM CLR 33/20 A2994 RMK AO1 T03270202
KASL 191635Z AUTO 21006KT 10SM SCT120 33/20 A2994 RMK AO1 T03260204
KASL 191615Z AUTO 24006KT 10SM SCT120 32/21 A2995 RMK AO1 T03220208
KASL 191555Z AUTO 24004KT 10SM CLR 32/21 A2995 RMK AO1 T03220213
KASL 191535Z AUTO 10SM CLR 32/22 A2996 RMK AO1 T03210219
KASL 191515Z AUTO 22007KT 10SM CLR 31/21 A2996 RMK AO1 T03080214
KASL 191455Z AUTO 24006KT 10SM CLR 30/22 A2996 RMK AO1 T03010216
KASL 191435Z AUTO 21005KT 10SM CLR 30/22 A2996 RMK AO1 T02950215
KASL 191415Z AUTO 23005KT 10SM CLR 30/22 A2996 RMK AO1 T02950219
KASL 191355Z AUTO 23005KT 10SM CLR 30/23 A2996 RMK AO1 T02950228
KASL 191335Z AUTO 22005KT 10SM CLR 29/23 A2996 RMK AO1 T02920233
KASL 191315Z AUTO 24003KT 10SM CLR 27/23 A2996 RMK AO1 T02730226
KASL 191255Z AUTO 22003KT 10SM CLR 25/22 A2995 RMK AO1 T02540223
KASL 191235Z AUTO 00000KT 10SM CLR 25/22 A2995 RMK AO1 T02460222
KASL 191215Z AUTO 00000KT 10SM CLR 24/22 A2995 RMK AO1 T02400219
KASL 191155Z AUTO 00000KT 7SM CLR 24/22 A2994 RMK AO1 T02350218 10280 20232
KASL 191135Z AUTO 00000KT 10SM CLR 24/22 A2994 RMK AO1 T02400219
KASL 191115Z AUTO 00000KT 10SM CLR 24/22 A2993 RMK AO1 T02400218
KASL 191055Z AUTO 00000KT 10SM CLR 24/22 A2992 RMK AO1 T02400218
KASL 191035Z AUTO 00000KT 10SM CLR 24/22 A2991 RMK AO1 T02400217
KASL 191015Z AUTO 19003KT 10SM CLR 24/22 A2991 RMK AO1 T02400215
KASL 190955Z AUTO 20003KT 10SM CLR 25/22 A2991 RMK AO1 T02460220
KASL 190935Z AUTO 20003KT 10SM CLR 25/22 A2991 RMK AO1 T02520220
KASL 190915Z AUTO 20003KT 10SM CLR 26/22 A2991 RMK AO1 T02560218
KASL 190855Z AUTO 20004KT 10SM CLR 26/22 A2991 RMK AO1 T02590218
KASL 190835Z AUTO 20004KT 10SM CLR 26/22 A2990 RMK AO1 T02600216
KASL 190815Z AUTO 20005KT 10SM CLR 26/22 A2991 RMK AO1 T02620215
KASL 190755Z AUTO 20005KT 10SM CLR 27/22 A2990 RMK AO1 T02660217
KASL 190735Z AUTO 20004KT 10SM CLR 27/22 A2991 RMK AO1 T02660217
KASL 190715Z AUTO 20005KT 10SM CLR 26/22 A2990 RMK AO1 T02630217
KASL 190655Z AUTO 00000KT 10SM CLR 26/22 A2990 RMK AO1 T02560216
KASL 190635Z AUTO 10SM CLR 26/22 A2990 RMK AO1 T02600216
KASL 190615Z AUTO 10SM CLR 28/23 A2991 RMK AO1 T02800227